Cedarville, Ohio
Current Conditions -  °F | °C
As of 5:56 PM on Saturday 25 Oct 2014 (Local Time) from KSGH Reporting Station
Clear Clear  
Wind Chill: 73°   Ceiling: Unl
Heat Index: 73°   Visibility: 9mi
Dew Point: 52°   Wind: 14mph
Humidity: 48%   Direction: 260°W
Pressure: 29.89"   Gusts: NA
Location:  39.74°N, 83.81°W
Report Text: KSGH 252156Z AUTO 26012KT 9SM CLR 23/11 A2989 RMK AO2 T02270111 SLP118
Loading
Personal Weather Stations






























Interactive Weather Map
Tropical Storm Tracking
New forecast layout! Learn more

10-Day Weather Forecast

Advertisements
Track Severe Weather on mobile